createdAt,value
2022-10-28T00:01:29.115Z,5.30
2022-10-28T00:04:01.503Z,5.50
2022-10-28T00:06:33.876Z,5.90
2022-10-28T00:09:05.607Z,4.70
2022-10-28T00:11:36.623Z,4.90
2022-10-28T00:14:08.079Z,5.40
2022-10-28T00:16:38.238Z,4.80
2022-10-28T00:19:08.660Z,5.20
2022-10-28T00:21:39.348Z,4.60
2022-10-28T00:24:09.617Z,4.80
2022-10-28T00:26:42.396Z,5.50
2022-10-28T00:29:14.119Z,4.70
2022-10-28T00:31:43.570Z,4.90
2022-10-28T00:34:18.518Z,4.70
2022-10-28T00:36:47.970Z,5.30
2022-10-28T00:39:19.526Z,4.80
2022-10-28T00:41:57.090Z,5.00
2022-10-28T00:45:00.711Z,5.00
2022-10-28T00:47:52.746Z,4.50
2022-10-28T00:50:40.929Z,4.50
2022-10-28T00:53:26.268Z,4.90
2022-10-28T00:55:56.590Z,4.90
2022-10-28T00:58:26.894Z,5.10
2022-10-28T01:00:56.112Z,5.10
2022-10-28T01:03:24.393Z,5.50
2022-10-28T01:05:53.503Z,4.90
2022-10-28T01:08:21.785Z,4.60
2022-10-28T01:10:59.002Z,5.40
2022-10-28T01:13:39.429Z,5.00
2022-10-28T01:16:16.534Z,5.40
2022-10-28T01:19:28.489Z,5.50
2022-10-28T01:22:12.064Z,5.00
2022-10-28T01:25:14.688Z,5.30
2022-10-28T01:27:54.907Z,4.70
2022-10-28T01:30:29.511Z,5.30
2022-10-28T01:33:10.277Z,5.10
2022-10-28T01:35:52.724Z,5.40
2022-10-28T01:38:36.302Z,4.60
2022-10-28T01:41:07.544Z,4.70
2022-10-28T01:43:42.117Z,4.90
2022-10-28T01:46:36.682Z,5.30
2022-10-28T01:49:14.108Z,4.70
2022-10-28T01:51:46.958Z,4.90
2022-10-28T01:54:19.961Z,4.70
2022-10-28T01:56:49.663Z,5.00
2022-10-28T01:59:22.396Z,4.80
2022-10-28T02:01:51.191Z,4.90
2022-10-28T02:04:19.553Z,4.20
2022-10-28T02:06:55.001Z,4.40
2022-10-28T02:09:47.840Z,4.80
2022-10-28T02:12:21.624Z,4.90
2022-10-28T02:15:27.439Z,4.50
2022-10-28T02:17:56.808Z,4.30
2022-10-28T02:20:31.186Z,4.90
2022-10-28T02:23:10.835Z,4.80
2022-10-28T02:25:46.903Z,4.50
2022-10-28T02:28:40.875Z,4.40
2022-10-28T02:31:34.658Z,5.30
2022-10-28T02:34:29.052Z,4.50
2022-10-28T02:37:02.664Z,4.40
2022-10-28T02:39:37.262Z,5.20
2022-10-28T02:42:25.819Z,4.30
2022-10-28T02:45:05.222Z,4.10
2022-10-28T02:47:37.970Z,4.00
2022-10-28T02:50:14.012Z,4.60
2022-10-28T02:52:44.738Z,4.70
2022-10-28T02:55:13.046Z,4.60
2022-10-28T02:57:45.088Z,4.70
2022-10-28T03:00:17.779Z,4.50
2022-10-28T03:02:46.891Z,4.20
2022-10-28T03:05:15.265Z,4.50
2022-10-28T03:07:43.671Z,4.90
2022-10-28T03:10:11.997Z,4.60
2022-10-28T03:12:40.252Z,4.50
2022-10-28T03:15:09.046Z,4.80
2022-10-28T03:17:37.296Z,5.00
2022-10-28T03:20:06.412Z,5.00
2022-10-28T03:22:34.714Z,4.70
2022-10-28T03:25:03.030Z,4.20
2022-10-28T03:27:31.374Z,4.50
2022-10-28T03:29:59.616Z,4.80
2022-10-28T03:32:27.979Z,4.40
2022-10-28T03:34:56.240Z,3.70
2022-10-28T03:37:25.017Z,3.90
2022-10-28T03:39:53.496Z,3.70
2022-10-28T03:42:21.806Z,4.40
2022-10-28T03:44:50.057Z,4.20
2022-10-28T03:47:18.270Z,4.50
2022-10-28T03:49:46.512Z,4.50
2022-10-28T03:52:14.750Z,4.60
2022-10-28T03:54:43.036Z,4.60
2022-10-28T03:57:11.312Z,4.40
2022-10-28T03:59:39.563Z,4.30
2022-10-28T04:02:07.870Z,4.10
2022-10-28T04:04:36.953Z,4.60
2022-10-28T04:07:05.200Z,4.60
2022-10-28T04:09:33.751Z,4.50
2022-10-28T04:12:02.051Z,5.00
2022-10-28T04:14:30.343Z,4.70
2022-10-28T04:16:58.991Z,4.50
2022-10-28T04:19:27.264Z,4.60
2022-10-28T04:21:55.518Z,4.30
2022-10-28T04:24:23.852Z,4.30
2022-10-28T04:26:52.177Z,4.40
2022-10-28T04:29:20.492Z,4.00
2022-10-28T04:31:51.417Z,3.90
2022-10-28T04:34:20.755Z,4.60
2022-10-28T04:36:48.983Z,4.00
2022-10-28T04:39:17.387Z,4.00
2022-10-28T04:41:45.702Z,4.10
2022-10-28T04:44:14.636Z,3.90
2022-10-28T04:46:42.950Z,4.30
2022-10-28T04:49:11.536Z,4.50
2022-10-28T04:51:39.862Z,4.60
2022-10-28T04:54:08.254Z,4.20
2022-10-28T04:56:36.480Z,4.30
2022-10-28T04:59:05.038Z,4.80
2022-10-28T05:01:33.473Z,4.30
2022-10-28T05:04:02.066Z,4.40
2022-10-28T05:06:30.372Z,4.70
2022-10-28T05:08:58.624Z,4.60
2022-10-28T05:11:26.980Z,4.50
2022-10-28T05:13:55.207Z,3.90
2022-10-28T05:16:23.549Z,4.50
2022-10-28T05:18:51.885Z,4.30
2022-10-28T05:21:20.244Z,4.20
2022-10-28T05:23:48.498Z,3.90
2022-10-28T05:26:16.829Z,4.30
2022-10-28T05:28:49.710Z,3.80
2022-10-28T05:31:18.682Z,3.80
2022-10-28T05:33:46.987Z,3.80
2022-10-28T05:36:15.372Z,4.20
2022-10-28T05:38:45.638Z,4.30
2022-10-28T05:41:13.908Z,3.90
2022-10-28T05:43:42.241Z,3.60
2022-10-28T05:46:10.621Z,3.50
2022-10-28T05:48:38.925Z,3.10
2022-10-28T05:51:07.250Z,3.10
2022-10-28T05:53:35.615Z,3.10
2022-10-28T05:56:04.065Z,3.10
2022-10-28T05:58:32.825Z,3.30
2022-10-28T06:01:01.101Z,3.40
2022-10-28T06:03:31.199Z,3.40
2022-10-28T06:06:00.054Z,4.50
2022-10-28T06:08:28.849Z,3.60
2022-10-28T06:10:55.611Z,3.60
2022-10-28T06:13:23.938Z,3.40
2022-10-28T06:15:54.587Z,3.50
2022-10-28T06:18:23.730Z,3.00
2022-10-28T06:20:53.709Z,3.70
2022-10-28T06:23:23.847Z,3.40
2022-10-28T06:26:01.270Z,3.90
2022-10-28T06:28:30.805Z,3.30
2022-10-28T06:31:03.887Z,3.40
2022-10-28T06:33:32.634Z,3.70
2022-10-28T06:36:00.962Z,3.60
2022-10-28T06:38:30.179Z,3.70
2022-10-28T06:40:58.602Z,3.50
2022-10-28T06:43:27.155Z,3.90
2022-10-28T06:45:59.362Z,3.70
2022-10-28T06:48:29.231Z,3.50
2022-10-28T06:50:58.606Z,4.90
2022-10-28T06:53:27.173Z,6.10
2022-10-28T06:55:57.218Z,6.60
2022-10-28T06:58:26.447Z,8.40
2022-10-28T07:00:56.883Z,6.80
2022-10-28T07:03:23.917Z,6.90
2022-10-28T07:05:55.445Z,7.40
2022-10-28T07:08:23.738Z,6.90
2022-10-28T07:10:59.994Z,7.50
2022-10-28T07:13:29.160Z,7.10
2022-10-28T07:16:00.824Z,6.40
2022-10-28T07:21:00.214Z,7.70
2022-10-28T07:23:29.356Z,7.20
2022-10-28T07:25:57.708Z,7.00
2022-10-28T07:28:27.178Z,7.50
2022-10-28T07:30:56.282Z,7.20
2022-10-28T07:33:24.849Z,5.90
2022-10-28T07:35:53.182Z,5.90
2022-10-28T07:38:21.599Z,6.40
2022-10-28T07:40:49.842Z,6.60
2022-10-28T07:43:18.109Z,7.20
2022-10-28T07:45:46.379Z,7.60
2022-10-28T07:48:15.119Z,7.30
2022-10-28T07:50:43.411Z,7.90
2022-10-28T07:53:11.674Z,8.20
2022-10-28T07:55:39.992Z,7.70
2022-10-28T07:58:08.453Z,7.90
2022-10-28T08:00:36.826Z,8.00
2022-10-28T08:03:05.164Z,8.10
2022-10-28T08:05:33.472Z,7.80
2022-10-28T08:08:01.749Z,8.10
2022-10-28T08:10:30.095Z,7.80
2022-10-28T08:12:59.216Z,8.00
2022-10-28T08:15:29.138Z,9.70
2022-10-28T08:17:57.597Z,9.50
2022-10-28T08:20:26.027Z,10.10
2022-10-28T08:22:54.627Z,9.10
2022-10-28T08:25:23.170Z,9.70
2022-10-28T08:27:51.448Z,8.60
2022-10-28T08:30:19.693Z,8.40
2022-10-28T08:32:47.967Z,6.70
2022-10-28T08:35:16.215Z,7.10
2022-10-28T08:37:51.509Z,7.30
2022-10-28T08:40:29.971Z,8.10
2022-10-28T08:43:34.934Z,7.40
2022-10-28T08:46:27.030Z,8.00
2022-10-28T08:48:55.665Z,7.80
2022-10-28T08:51:49.446Z,8.40
2022-10-28T08:54:24.770Z,8.00
2022-10-28T08:56:55.210Z,8.60
2022-10-28T08:59:32.628Z,8.70
2022-10-28T09:02:13.440Z,8.70
2022-10-28T09:04:47.050Z,9.50
2022-10-28T09:07:21.780Z,9.80
2022-10-28T09:09:53.099Z,10.60
2022-10-28T09:12:27.704Z,10.30
2022-10-28T09:15:27.440Z,10.20
2022-10-28T09:18:01.813Z,12.30
2022-10-28T09:20:53.304Z,12.10
2022-10-28T09:23:44.514Z,12.30
2022-10-28T09:26:12.763Z,10.90
2022-10-28T09:29:17.213Z,10.80
2022-10-28T09:32:01.495Z,11.50
2022-10-28T09:34:58.697Z,11.20
2022-10-28T09:38:01.381Z,12.80
2022-10-28T09:40:36.701Z,12.30
2022-10-28T09:43:17.320Z,12.10
2022-10-28T09:48:37.519Z,11.90
2022-10-28T09:51:06.116Z,13.00
2022-10-28T09:53:56.408Z,13.20
2022-10-28T09:56:26.390Z,11.60
2022-10-28T09:58:58.375Z,10.50
2022-10-28T10:01:33.386Z,9.90
2022-10-28T10:04:02.753Z,8.90
2022-10-28T10:06:37.785Z,9.40
2022-10-28T10:09:06.120Z,9.00
2022-10-28T10:11:49.477Z,8.80
2022-10-28T10:14:22.399Z,8.60
2022-10-28T10:17:12.982Z,8.80
2022-10-28T10:22:39.946Z,8.70
2022-10-28T10:25:20.586Z,8.40
2022-10-28T10:30:30.755Z,7.90
2022-10-28T10:33:00.025Z,8.60
2022-10-28T10:35:34.303Z,8.70
2022-10-28T10:38:07.028Z,9.50
2022-10-28T10:40:40.718Z,9.90
2022-10-28T10:43:18.316Z,9.70
2022-10-28T10:46:16.015Z,9.80
2022-10-28T10:48:44.689Z,8.90
2022-10-28T10:51:22.528Z,9.30
2022-10-28T10:53:54.987Z,9.20
2022-10-28T10:56:30.091Z,8.20
2022-10-28T10:59:03.175Z,9.30
2022-10-28T11:01:39.483Z,8.20
2022-10-28T11:04:15.861Z,8.60
2022-10-28T11:06:48.644Z,8.10
2022-10-28T11:09:29.098Z,9.10
2022-10-28T11:11:57.800Z,7.60
2022-10-28T11:14:32.575Z,7.30
2022-10-28T11:17:02.757Z,7.20
2022-10-28T11:19:33.024Z,7.20
2022-10-28T11:22:27.561Z,7.00
2022-10-28T11:25:01.650Z,7.00
2022-10-28T11:27:29.920Z,7.40
2022-10-28T11:30:00.062Z,6.20
2022-10-28T11:33:16.224Z,6.20
2022-10-28T11:36:16.465Z,5.90
2022-10-28T11:39:03.462Z,5.40
2022-10-28T11:41:52.145Z,5.90
2022-10-28T11:44:46.884Z,5.80
2022-10-28T11:47:27.288Z,6.10
2022-10-28T11:52:45.259Z,4.70
2022-10-28T11:55:23.009Z,5.20
2022-10-28T11:58:06.752Z,5.10
2022-10-28T12:00:34.988Z,4.60
2022-10-28T12:03:18.676Z,4.80
2022-10-28T12:05:56.177Z,5.30
2022-10-28T12:08:45.947Z,4.90
2022-10-28T12:11:32.406Z,4.80
2022-10-28T12:14:23.074Z,6.10
2022-10-28T12:16:58.404Z,4.70
2022-10-28T12:19:35.098Z,4.30
2022-10-28T12:22:32.912Z,4.70
2022-10-28T12:25:08.715Z,4.60
2022-10-28T12:27:42.789Z,4.80
2022-10-28T12:30:21.469Z,4.90
2022-10-28T12:33:06.858Z,4.90
2022-10-28T12:35:40.592Z,4.70
2022-10-28T12:38:11.729Z,5.10
2022-10-28T12:41:00.193Z,5.60
2022-10-28T12:43:38.596Z,6.60
2022-10-28T12:46:18.939Z,6.60
2022-10-28T12:51:21.669Z,6.10
2022-10-28T12:54:00.748Z,5.20
2022-10-28T12:56:38.120Z,5.60
2022-10-28T12:59:35.918Z,5.50
2022-10-28T13:02:12.061Z,5.60
2022-10-28T13:04:41.400Z,5.20
2022-10-28T13:07:35.849Z,5.50
2022-10-28T13:10:24.659Z,5.00
2022-10-28T13:13:13.397Z,5.30
2022-10-28T13:16:04.169Z,4.90
2022-10-28T13:18:58.377Z,4.40
2022-10-28T13:22:01.088Z,5.30
2022-10-28T13:24:39.524Z,5.30
2022-10-28T13:27:13.882Z,5.50
2022-10-28T13:29:48.672Z,5.50
2022-10-28T13:32:38.870Z,5.60
2022-10-28T13:37:47.809Z,5.20
2022-10-28T13:40:41.641Z,5.20
2022-10-28T13:43:41.627Z,4.80
2022-10-28T13:46:09.935Z,4.80
2022-10-28T13:48:46.228Z,4.90
2022-10-28T13:51:14.475Z,5.00
2022-10-28T13:53:45.801Z,5.30
2022-10-28T13:56:53.209Z,5.40
2022-10-28T13:59:32.892Z,4.90
2022-10-28T14:02:39.421Z,5.60
2022-10-28T14:05:11.460Z,5.10
2022-10-28T14:08:01.684Z,5.60
2022-10-28T14:13:19.504Z,5.60
2022-10-28T14:15:49.667Z,5.30
2022-10-28T14:21:06.313Z,5.60
2022-10-28T14:23:36.619Z,5.90
2022-10-28T14:26:06.392Z,5.90
2022-10-28T14:28:35.649Z,7.10
2022-10-28T14:31:12.613Z,5.00
2022-10-28T14:33:46.648Z,6.20
2022-10-28T14:36:17.728Z,5.70
2022-10-28T14:39:19.245Z,6.40
2022-10-28T14:42:03.083Z,5.20
2022-10-28T14:44:49.978Z,6.00
2022-10-28T14:53:46.763Z,6.50
2022-10-28T14:56:31.050Z,5.80
2022-10-28T14:59:19.698Z,6.90
2022-10-28T15:02:08.735Z,6.40
2022-10-28T15:04:38.736Z,6.40
2022-10-28T15:07:18.924Z,6.50
2022-10-28T15:09:52.795Z,6.40
2022-10-28T15:12:22.196Z,6.30
2022-10-28T15:14:55.326Z,5.70
2022-10-28T15:17:25.513Z,6.30
2022-10-28T15:19:58.093Z,6.30
2022-10-28T15:22:31.649Z,6.30
2022-10-28T15:25:10.493Z,6.80
2022-10-28T15:27:39.743Z,6.20
2022-10-28T15:30:14.984Z,6.60
